createdAt,value
2023-03-22T00:00:01.718Z,4.00
2023-03-22T00:02:30.568Z,4.00
2023-03-22T00:04:57.837Z,4.00
2023-03-22T00:07:24.931Z,4.00
2023-03-22T00:09:52.544Z,4.00
2023-03-22T00:12:19.548Z,4.10
2023-03-22T00:14:47.033Z,4.00
2023-03-22T00:17:14.114Z,4.00
2023-03-22T00:19:42.331Z,3.90
2023-03-22T00:22:11.632Z,4.00
2023-03-22T00:24:38.815Z,4.00
2023-03-22T00:27:05.761Z,4.00
2023-03-22T00:29:33.106Z,4.00
2023-03-22T00:32:00.426Z,4.10
2023-03-22T00:34:31.261Z,4.10
2023-03-22T00:36:58.340Z,4.10
2023-03-22T00:39:26.880Z,4.10
2023-03-22T00:41:53.995Z,4.10
2023-03-22T00:44:21.520Z,4.20
2023-03-22T00:46:48.548Z,4.10
2023-03-22T00:49:15.546Z,4.00
2023-03-22T00:51:43.204Z,4.00
2023-03-22T00:54:10.301Z,3.90
2023-03-22T00:56:38.905Z,3.90
2023-03-22T00:59:13.013Z,3.80
2023-03-22T01:01:41.734Z,3.80
2023-03-22T01:04:09.004Z,3.90
2023-03-22T01:06:36.234Z,3.90
2023-03-22T01:09:03.921Z,4.00
2023-03-22T01:11:31.278Z,4.00
2023-03-22T01:13:59.715Z,3.80
2023-03-22T01:16:27.024Z,3.70
2023-03-22T01:18:54.127Z,3.80
2023-03-22T01:21:21.950Z,3.80
2023-03-22T01:23:58.393Z,3.80
2023-03-22T01:26:25.709Z,3.80
2023-03-22T01:28:52.854Z,3.90
2023-03-22T01:31:20.041Z,3.90
2023-03-22T01:33:47.626Z,3.90
2023-03-22T01:36:14.745Z,4.00
2023-03-22T01:38:41.948Z,4.00
2023-03-22T01:41:08.961Z,4.00
2023-03-22T01:43:39.938Z,4.00
2023-03-22T01:46:08.202Z,4.10
2023-03-22T01:48:37.480Z,4.00
2023-03-22T01:51:21.355Z,4.00
2023-03-22T01:54:07.959Z,4.00
2023-03-22T01:56:37.131Z,3.90
2023-03-22T01:59:06.438Z,3.80
2023-03-22T02:01:50.204Z,3.80
2023-03-22T02:04:20.175Z,3.60
2023-03-22T02:06:47.690Z,3.60
2023-03-22T02:09:18.340Z,3.50
2023-03-22T02:11:52.074Z,3.50
2023-03-22T02:14:48.134Z,3.50
2023-03-22T02:17:53.162Z,3.60
2023-03-22T02:20:40.120Z,3.80
2023-03-22T02:23:28.881Z,3.80
2023-03-22T02:26:15.707Z,3.80
2023-03-22T02:28:46.639Z,3.70
2023-03-22T02:31:18.783Z,3.80
2023-03-22T02:33:49.370Z,3.80
2023-03-22T02:36:25.511Z,3.80
2023-03-22T02:39:01.762Z,3.80
2023-03-22T02:41:36.062Z,3.80
2023-03-22T02:44:14.940Z,3.90
2023-03-22T02:46:44.646Z,3.80
2023-03-22T02:49:20.915Z,3.80
2023-03-22T02:51:55.595Z,3.80
2023-03-22T02:54:28.975Z,3.80
2023-03-22T02:57:00.827Z,3.80
2023-03-22T02:59:29.838Z,3.60
2023-03-22T03:01:58.811Z,3.60
2023-03-22T03:04:28.612Z,3.70
2023-03-22T03:06:57.774Z,3.70
2023-03-22T03:09:25.228Z,3.60
2023-03-22T03:11:53.155Z,3.60
2023-03-22T03:14:31.234Z,3.60
2023-03-22T03:16:59.154Z,3.30
2023-03-22T03:19:32.235Z,3.20
2023-03-22T03:22:16.323Z,3.10
2023-03-22T03:24:52.030Z,3.10
2023-03-22T03:27:23.717Z,3.10
2023-03-22T03:30:05.004Z,3.10
2023-03-22T03:32:38.147Z,3.00
2023-03-22T03:35:07.718Z,3.10
2023-03-22T03:37:37.197Z,3.10
2023-03-22T03:40:09.984Z,3.10
2023-03-22T03:42:42.508Z,3.10
2023-03-22T03:45:10.339Z,3.10
2023-03-22T03:47:38.285Z,3.10
2023-03-22T03:50:06.436Z,3.10
2023-03-22T03:52:33.525Z,3.20
2023-03-22T03:55:00.985Z,3.20
2023-03-22T03:57:32.513Z,3.10
2023-03-22T03:59:59.758Z,3.00
2023-03-22T04:02:43.884Z,3.00
2023-03-22T04:05:24.125Z,3.00
2023-03-22T04:07:51.277Z,3.00
2023-03-22T04:10:19.043Z,3.00
2023-03-22T04:12:46.051Z,3.00
2023-03-22T04:15:16.443Z,2.90
2023-03-22T04:17:46.966Z,2.80
2023-03-22T04:20:18.543Z,2.80
2023-03-22T04:22:48.496Z,2.80
2023-03-22T04:25:18.322Z,2.70
2023-03-22T04:27:57.268Z,2.70
2023-03-22T04:30:24.876Z,2.70
2023-03-22T04:33:01.501Z,2.70
2023-03-22T04:35:58.548Z,2.70
2023-03-22T04:38:35.194Z,2.80
2023-03-22T04:41:03.506Z,2.90
2023-03-22T04:43:39.440Z,2.90
2023-03-22T04:46:12.984Z,2.90
2023-03-22T04:48:47.667Z,3.00
2023-03-22T04:51:16.287Z,2.90
2023-03-22T04:53:55.311Z,3.00
2023-03-22T04:56:22.667Z,2.90
2023-03-22T04:58:51.904Z,3.00
2023-03-22T05:01:19.340Z,3.00
2023-03-22T05:03:51.476Z,3.00
2023-03-22T05:06:22.310Z,3.00
2023-03-22T05:09:06.476Z,3.10
2023-03-22T05:11:33.946Z,3.10
2023-03-22T05:14:23.722Z,3.10
2023-03-22T05:16:51.340Z,3.10
2023-03-22T05:19:22.465Z,3.10
2023-03-22T05:21:58.030Z,3.20
2023-03-22T05:24:35.005Z,3.30
2023-03-22T05:27:03.992Z,3.30
2023-03-22T05:29:37.076Z,3.40
2023-03-22T05:32:12.178Z,3.40
2023-03-22T05:34:42.818Z,3.40
2023-03-22T05:37:26.458Z,3.30
2023-03-22T05:39:56.221Z,3.40
2023-03-22T05:42:32.506Z,3.40
2023-03-22T05:45:01.895Z,3.50
2023-03-22T05:47:29.465Z,3.60
2023-03-22T05:50:03.054Z,3.60
2023-03-22T05:52:33.606Z,3.70
2023-03-22T05:55:26.368Z,3.70
2023-03-22T05:57:57.118Z,3.80
2023-03-22T06:00:27.968Z,3.90
2023-03-22T06:03:24.138Z,3.90
2023-03-22T06:06:11.028Z,4.00
2023-03-22T06:08:44.734Z,4.10
2023-03-22T06:11:15.620Z,4.10
2023-03-22T06:13:42.653Z,4.10
2023-03-22T06:16:11.324Z,4.10
2023-03-22T06:18:38.933Z,4.10
2023-03-22T06:21:10.736Z,4.20
2023-03-22T06:23:38.095Z,4.20
2023-03-22T06:26:05.722Z,4.20
2023-03-22T06:28:35.490Z,4.20
2023-03-22T06:31:08.188Z,4.20
2023-03-22T06:33:57.127Z,4.30
2023-03-22T06:36:33.577Z,4.20
2023-03-22T06:39:24.071Z,4.30
2023-03-22T06:41:51.777Z,4.40
2023-03-22T06:44:19.256Z,4.50
2023-03-22T06:46:52.989Z,4.50
2023-03-22T06:52:10.428Z,4.80
2023-03-22T06:54:37.763Z,4.90
2023-03-22T06:57:05.372Z,4.90
2023-03-22T06:59:32.529Z,5.00
2023-03-22T07:01:59.990Z,5.00
2023-03-22T07:04:28.328Z,5.00
2023-03-22T07:06:57.943Z,5.00
2023-03-22T07:09:28.093Z,5.00
2023-03-22T07:11:58.656Z,5.00
2023-03-22T07:14:26.369Z,5.10
2023-03-22T07:17:03.522Z,5.10
2023-03-22T07:19:32.015Z,5.20
2023-03-22T07:22:04.452Z,5.20
2023-03-22T07:24:33.059Z,5.20
2023-03-22T07:27:02.957Z,5.30
2023-03-22T07:29:31.492Z,5.30
2023-03-22T07:31:59.515Z,5.30
2023-03-22T07:34:33.028Z,5.20
2023-03-22T07:37:07.325Z,5.30
2023-03-22T07:39:35.029Z,5.40
2023-03-22T07:42:03.258Z,5.50
2023-03-22T07:44:42.399Z,5.60
2023-03-22T07:47:10.078Z,5.80
2023-03-22T07:49:53.233Z,5.80
2023-03-22T07:52:25.610Z,6.00
2023-03-22T07:54:52.664Z,6.00
2023-03-22T07:57:19.920Z,6.00
2023-03-22T07:59:54.332Z,6.00
2023-03-22T08:02:23.937Z,6.00
2023-03-22T08:04:56.624Z,6.00
2023-03-22T08:07:36.510Z,6.10
2023-03-22T08:10:04.655Z,6.20
2023-03-22T08:12:32.885Z,6.20
2023-03-22T08:15:10.613Z,6.30
2023-03-22T08:17:38.953Z,6.40
2023-03-22T08:20:10.396Z,6.40
2023-03-22T08:22:46.223Z,6.60
2023-03-22T08:25:49.260Z,6.70
2023-03-22T08:28:16.905Z,6.60
2023-03-22T08:30:45.272Z,6.60
2023-03-22T08:33:12.742Z,6.60
2023-03-22T08:35:40.183Z,6.50
2023-03-22T08:38:08.143Z,6.50
2023-03-22T08:40:45.779Z,6.60
2023-03-22T08:43:13.301Z,6.70
2023-03-22T08:45:40.881Z,6.80
2023-03-22T08:48:16.305Z,6.90
2023-03-22T08:51:02.460Z,7.10
2023-03-22T08:53:40.500Z,7.10
2023-03-22T08:56:29.023Z,7.10
2023-03-22T08:59:11.298Z,7.10
2023-03-22T09:02:01.141Z,7.20
2023-03-22T09:04:28.418Z,7.20
2023-03-22T09:06:55.733Z,7.30
2023-03-22T09:09:22.780Z,7.30
2023-03-22T09:11:52.813Z,7.20
2023-03-22T09:14:20.012Z,7.20
2023-03-22T09:16:48.347Z,7.30
2023-03-22T09:19:16.675Z,7.30
2023-03-22T09:21:43.831Z,7.40
2023-03-22T09:24:18.452Z,7.40
2023-03-22T09:26:52.044Z,7.40
2023-03-22T09:29:19.775Z,7.50
2023-03-22T09:31:49.138Z,7.60
2023-03-22T09:34:20.149Z,7.60
2023-03-22T09:36:47.650Z,7.60
2023-03-22T09:39:18.472Z,7.70
2023-03-22T09:41:54.974Z,7.80
2023-03-22T09:44:31.960Z,7.80
2023-03-22T09:47:00.726Z,7.80
2023-03-22T09:49:33.247Z,7.80
2023-03-22T09:52:20.006Z,7.70
2023-03-22T09:54:47.978Z,7.70
2023-03-22T09:57:36.551Z,7.70
2023-03-22T10:00:16.698Z,7.60
2023-03-22T10:02:47.088Z,7.70
2023-03-22T10:05:20.959Z,7.70
2023-03-22T10:07:54.294Z,7.70
2023-03-22T10:10:22.750Z,7.60
2023-03-22T10:12:54.798Z,7.60
2023-03-22T10:15:28.800Z,7.60
2023-03-22T10:17:56.869Z,7.60
2023-03-22T10:20:28.995Z,7.60
2023-03-22T10:22:58.094Z,7.60
2023-03-22T10:25:31.270Z,7.70
2023-03-22T10:27:59.013Z,7.80
2023-03-22T10:30:27.753Z,7.90
2023-03-22T10:33:01.191Z,8.10
2023-03-22T10:35:28.456Z,8.20
2023-03-22T10:37:57.499Z,8.10
2023-03-22T10:40:29.573Z,7.90
2023-03-22T10:43:03.720Z,7.90
2023-03-22T10:45:33.164Z,8.00
2023-03-22T10:48:27.371Z,7.90
2023-03-22T10:50:55.330Z,7.90
2023-03-22T10:53:28.274Z,7.90
2023-03-22T10:55:55.984Z,8.10
2023-03-22T10:58:27.167Z,8.30
2023-03-22T11:00:57.043Z,8.30
2023-03-22T11:03:37.547Z,8.10
2023-03-22T11:06:11.034Z,8.20
2023-03-22T11:08:39.358Z,8.30
2023-03-22T11:11:07.898Z,8.30
2023-03-22T11:13:35.890Z,8.20
2023-03-22T11:16:03.595Z,8.10
2023-03-22T11:18:32.508Z,7.90
2023-03-22T11:21:00.384Z,8.00
2023-03-22T11:23:29.442Z,7.90
2023-03-22T11:25:57.039Z,7.90
2023-03-22T11:28:28.881Z,7.90
2023-03-22T11:31:12.630Z,7.80
2023-03-22T11:34:00.384Z,7.70
2023-03-22T11:36:28.110Z,7.70
2023-03-22T11:39:07.963Z,7.80
2023-03-22T11:41:36.801Z,7.70
2023-03-22T11:44:08.481Z,7.60
2023-03-22T11:46:36.662Z,7.60
2023-03-22T11:49:14.624Z,7.60
2023-03-22T11:51:42.439Z,7.60
2023-03-22T11:54:30.774Z,7.60
2023-03-22T11:57:00.988Z,7.60
2023-03-22T11:59:36.849Z,7.60
2023-03-22T12:02:23.869Z,7.60
2023-03-22T12:04:53.281Z,7.60
2023-03-22T12:07:24.798Z,7.60
2023-03-22T12:10:09.981Z,7.60
2023-03-22T12:12:40.442Z,7.60
2023-03-22T12:15:10.677Z,7.70
2023-03-22T12:17:38.106Z,7.70
2023-03-22T12:20:08.549Z,7.60
2023-03-22T12:22:40.029Z,7.50
2023-03-22T12:25:17.556Z,7.50
2023-03-22T12:27:47.340Z,7.50
2023-03-22T12:30:16.722Z,7.50
2023-03-22T12:32:47.013Z,7.60
2023-03-22T12:35:18.079Z,7.60
2023-03-22T12:37:48.179Z,7.60
2023-03-22T12:40:19.129Z,7.60
2023-03-22T12:43:06.716Z,7.60
2023-03-22T12:45:36.314Z,7.60
2023-03-22T12:48:06.753Z,7.70
2023-03-22T12:50:41.983Z,7.70
2023-03-22T12:53:12.919Z,7.60
2023-03-22T12:55:41.153Z,7.60
2023-03-22T12:58:09.307Z,7.50
2023-03-22T13:00:36.639Z,7.40
2023-03-22T13:03:24.326Z,7.40
2023-03-22T13:05:59.523Z,7.40
2023-03-22T13:08:47.266Z,7.40
2023-03-22T13:11:24.287Z,7.40
2023-03-22T13:13:52.557Z,7.40
2023-03-22T13:16:22.767Z,7.50
2023-03-22T13:18:50.092Z,7.60
2023-03-22T13:21:27.174Z,7.60
2023-03-22T13:24:06.468Z,7.60
2023-03-22T13:26:36.878Z,7.60
2023-03-22T13:29:32.635Z,7.60
2023-03-22T13:32:20.172Z,7.70
2023-03-22T13:34:49.300Z,7.80
2023-03-22T13:37:55.061Z,7.80
2023-03-22T13:40:27.750Z,7.80
2023-03-22T13:42:55.055Z,7.90
2023-03-22T13:45:33.567Z,8.00
2023-03-22T13:48:13.041Z,8.00
2023-03-22T13:50:40.605Z,8.10
2023-03-22T13:53:13.705Z,8.00
2023-03-22T13:55:46.909Z,8.00
2023-03-22T13:58:41.385Z,8.10
2023-03-22T14:01:14.862Z,8.10
2023-03-22T14:03:46.811Z,8.20
2023-03-22T14:06:15.717Z,8.20
2023-03-22T14:08:51.616Z,8.30
2023-03-22T14:11:20.890Z,8.30
2023-03-22T14:13:51.570Z,8.40
2023-03-22T14:16:47.778Z,8.30
2023-03-22T14:19:19.621Z,8.40
